Flugplatz Düsseldorf International

Bericht für EDDL

vom 21.05. um 15:50 UTC

Wind 8 kt aus 270°

Sichtweite 10 km oder mehr

gering bewölkt in 4500 ft

Temperatur 19.0°C

Taupunkt 8.0°C

Luftfeuchtigkeit 49%

Luftdruck 1020 hPa

keine wesentliche Wetteränderung innerhalb den nächsten 2 Stunden zu erwarten

EDDL 211550Z AUTO 27008KT 9999 FEW045 19/08 Q1020 NOSIG

Prognose für EDDL

vom 21.05. um 11:00 UTC

Zwischen 12:00 UTC und 15:00 UTC

Wind 10 kt aus 260°

Sichtweite 10 km oder mehr

aufgelockert bewölkt in 4000 ft


Zwischen 15:00 und 18:00 UTC übergehend zu

Wind 5 kt aus 310°

Sichtweite 10 km oder mehr

aufgelockert bewölkt in 4000 ft


Zwischen 21:00 und 00:00 UTC übergehend zu

variable Windrichtung mit 3 kt

Sichtweite 10 km oder mehr

aufgelockert bewölkt in 4000 ft


Am 22.05. zwischen 10:00 und 13:00 UTC übergehend zu

Wind 5 kt aus 80°

Sichtweite 10 km oder mehr

aufgelockert bewölkt in 4000 ft

TAF EDDL 211100Z 2112/2218 26010KT 9999 SCT040 BECMG 2115/2118 31005KT BECMG 2121/2124 VRB03KT BECMG 2210/2213 08005KT
Impressum